Escola de vôo
Dean International

Program Pricing

Bem Vindos a Dean International

Durante mais de 20 anos a Dean International educou mais de 7,000 pilotos de todas as partes do mundo. Oferecendo treinamento de grande qualidade, uma equipe muito amigável, uma ampla variedade de aviões e sempre procurando melhorar, conseguimos virar uma das maiores e mais prestigiadas escola de aviação aprovada pelo FAA. Situada no Aeroporto Executivo Kendall-Tamiami em Miami, Florida, nossa escola de aviação oferece um ambiente ideal para aprender a voar o ano inteiro e estamos bem equipados para prestar serviços aos alunos da comunidade geral de aviação. Visite-nos ou contacte-nos hoje para obter mais informações sobre nossos diferentes programas e serviços ou leia mais sobre nossos programas se você é um estudante internacional interessado em unir-se a nossa escola.
Tiempo Local
TAF FOR KTMB (Issued: Fri, May 27th 2016 8:33 PM UTC)
TAF
      AMD KTMB 271932Z 2720/2818 11013G19KT P6SM VCSH BKN040
      FM280000 09003KT P6SM SCT035
      FM281500 11008KT P6SM SCT035
     
METAR FOR KTMB (Issued: Fri, May 27th 2016 10:53 PM UTC):
KTMB 272253Z 07012KT 10SM CLR 27/21 A2992 RMK AO2 SLP130 T02670211

This weather information is provided by the National Weather Service.
It is automatically refreshed every three minutes.
TAF FOR KHST (Issued: Fri, May 27th 2016 4:16 PM UTC)
TAF KHST 271600Z 2716/2822 05009KT 9999 FEW030 SCT045 QNH2997INS
      BECMG 2720/2721 08015KT 9999 FEW035 QNH2994INS
      BECMG 2805/2806 VRB04KT 9999 SKC QNH2997INS TX30/2718Z TN23/2811Z
     
METAR FOR KHST (Issued: Fri, May 27th 2016 10:58 PM UTC):
KHST 272258Z AUTO 06009KT 10SM FEW025 28/22 A2991 RMK AO2 SLP132 T02760217

This weather information is provided by the National Weather Service.
It is automatically refreshed every three minutes.
TAF FOR KOPF (Issued: Fri, May 27th 2016 6:24 PM UTC)
TAF KOPF 271722Z 2718/2818 08010KT P6SM SCT030
      FM280100 VRB03KT P6SM FEW030
      FM281500 10008KT P6SM SCT035
     
METAR FOR KOPF (Issued: Fri, May 27th 2016 11:05 PM UTC):
KOPF 272305Z 07009KT 10SM FEW027 SCT033 BKN050 28/21 A2992 RMK AO2 T02780211

This weather information is provided by the National Weather Service.
It is automatically refreshed every three minutes.
TAF FOR KMIA (Issued: Fri, May 27th 2016 8:48 PM UTC)
TAF
      AMD KMIA 271944Z 2720/2818 06015KT P6SM VCSH SCT030 BKN050
      FM280200 08005KT P6SM SCT025
      FM281500 11009KT P6SM SCT035
     
METAR FOR KMIA (Issued: Fri, May 27th 2016 10:53 PM UTC):
KMIA 272253Z 07012G17KT 10SM SCT030CB SCT050 BKN250 27/21 A2992 RMK AO2 SLP133 CB NE MOV SW CB DSNT E MOV SW TCU W T02720211

This weather information is provided by the National Weather Service.
It is automatically refreshed every three minutes.
Desenhado por Ariel Llizo
© Dean International Inc. 2012